Terminal Aerodrome Forecast
Issued by NWS Portland, ME

Home | Current Version | Previous Version | Text Only | Print | Product List | Glossary On
Versions: 1 2 3 4 5 6 7 8 9 10 11 12 13 14 15 16 17 18
000
FTUS41 KGYX 212056 AAA
TAFCON
TAF AMD
KCON 212056Z 2121/2218 28010G18KT P6SM SCT200
     FM220100 VRB03KT P6SM SCT200
     FM221300 31005KT P6SM SCT100=

USA.gov is the U.S. government's official web portal to all federal, state and local government web resources and services.